Time;durP1;ratioP1;P1;durP2;ratioP2;P2;SDS_P1;SDS_P2;PMS_P1;PMS_P2;Temp;Humidity;BMP_temperature;BMP_pressure;BME280_temperature;BME280_humidity;BME280_pressure;Samples;Min_cycle;Max_cycle;Signal;HPM_P1;HPM_P2
2021/10/13 00:01:50;;;;;;;27.25;20.13;;;14.70;73.10;;;;;;5034398;28;20037;-68
2021/10/13 00:04:16;;;;;;;27.17;19.52;;;14.70;74.20;;;;;;5022806;28;20040;-68
2021/10/13 00:06:42;;;;;;;26.98;21.27;;;;;;;;;;5022803;28;20116;-68
2021/10/13 00:09:08;;;;;;;28.42;21.15;;;;;;;;;;5016218;28;20113;-68
2021/10/13 00:11:35;;;;;;;29.50;21.17;;;;;;;;;;5034447;28;20049;-68
2021/10/13 00:14:01;;;;;;;27.98;20.95;;;;;;;;;;5034990;28;20033;-68
2021/10/13 00:16:30;;;;;;;30.02;22.27;;;;;;;;;;5033897;28;20133;-68
2021/10/13 00:18:56;;;;;;;34.80;22.05;;;;;;;;;;5034820;28;20045;-68
2021/10/13 00:21:22;;;;;;;31.40;21.17;;;;;;;;;;5032868;28;20041;-68
2021/10/13 00:23:48;;;;;;;32.10;22.20;;;;;;;;;;5035284;28;20025;-68
2021/10/13 00:26:14;;;;;;;30.95;21.30;;;;;;;;;;5034672;28;20065;-68
2021/10/13 00:28:40;;;;;;;28.67;21.02;;;;;;;;;;5035548;28;20033;-68
2021/10/13 00:31:07;;;;;;;28.60;20.83;;;;;;;;;;5034130;28;20037;-68
2021/10/13 00:33:33;;;;;;;29.38;21.52;;;;;;;;;;5035107;28;20545;-68
2021/10/13 00:35:59;;;;;;;29.40;20.85;;;;;;;;;;5016480;28;20033;-68
2021/10/13 00:38:25;;;;;;;30.70;22.08;;;;;;;;;;5034999;28;20551;-68
2021/10/13 00:40:51;;;;;;;33.90;22.13;;;;;;;;;;5031492;28;20096;-68
2021/10/13 00:43:17;;;;;;;30.42;21.95;;;;;;;;;;5035116;28;20121;-67
2021/10/13 00:45:43;;;;;;;29.08;22.15;;;;;;;;;;5034422;28;20128;-68
2021/10/13 00:48:09;;;;;;;29.48;21.55;;;;;;;;;;5034509;28;20091;-68
2021/10/13 00:50:35;;;;;;;28.60;22.13;;;;;;;;;;5031611;28;20041;-68
2021/10/13 00:53:01;;;;;;;34.13;22.60;;;;;;;;;;5034040;28;20045;-68
2021/10/13 00:55:27;;;;;;;28.48;21.25;;;;;;;;;;5033958;28;20037;-68
2021/10/13 00:57:53;;;;;;;30.13;22.98;;;;;;;;;;5034299;28;20036;-68
2021/10/13 01:00:20;;;;;;;30.95;22.38;;;;;;;;;;5015145;28;20398;-68
2021/10/13 01:02:59;;;;;;;29.40;22.20;;;;;;;;;;5034747;28;20502;-68
2021/10/13 01:05:31;;;;;;;32.25;24.15;;;;;;;;;;5033295;28;20029;-68
2021/10/13 01:08:00;;;;;;;34.17;23.05;;;;;;;;;;5032033;28;20443;-68
2021/10/13 01:10:44;;;;;;;33.80;22.88;;;;;;;;;;5033707;28;20387;-68
2021/10/13 01:13:25;;;;;;;33.78;23.05;;;;;;;;;;5020070;28;20053;-68
2021/10/13 01:16:11;;;;;;;31.27;22.77;;;;;;;;;;5020792;28;20053;-67
2021/10/13 01:18:48;;;;;;;31.77;23.15;;;;;;;;;;5020949;28;20044;-68
2021/10/13 01:21:21;;;;;;;36.63;23.58;;;;;;;;;;5031351;28;20399;-68
2021/10/13 01:23:47;;;;;;;32.17;22.63;;;;;;;;;;5032985;28;20037;-68
2021/10/13 01:26:21;;;;;;;30.85;22.65;;;;;;;;;;5031801;28;20087;-68
2021/10/13 01:28:49;;;;;;;32.67;23.48;;;;;;;;;;5034219;28;20045;-68
2021/10/13 01:31:20;;;;;;;34.13;23.33;;;;;;;;;;5033243;28;20087;-68
2021/10/13 01:33:58;;;;;;;35.85;23.98;;;;;;;;;;5016703;28;20037;-68
2021/10/13 01:36:27;;;;;;;33.90;25.35;;;;;;;;;;5032791;28;20427;-68
2021/10/13 01:38:54;;;;;;;31.15;24.00;;;;;;;;;;5033080;28;20033;-68
2021/10/13 01:41:21;;;;;;;31.90;24.02;;;;;;;;;;5015496;28;20383;-68
2021/10/13 01:43:49;;;;;;;30.88;24.05;;;;;;;;;;5034273;28;20041;-68
2021/10/13 01:46:15;;;;;;;35.55;24.73;;;;;;;;;;5033106;28;20026;-68
2021/10/13 01:48:42;;;;;;;33.42;24.35;;;;;;;;;;5028424;28;20485;-68
2021/10/13 01:51:08;;;;;;;34.05;25.83;;;;;;;;;;5029020;28;20134;-68
2021/10/13 01:53:35;;;;;;;39.17;25.33;;;;;;;;;;5015096;28;20394;-68
2021/10/13 01:56:02;;;;;;;34.00;23.95;;;;;;;;;;5032253;28;20487;-68
2021/10/13 01:58:29;;;;;;;31.80;24.13;;;;;;;;;;5033162;28;20033;-68
2021/10/13 02:00:57;;;;;;;34.45;26.17;;;;;;;;;;5032530;28;20395;-68
2021/10/13 02:03:26;;;;;;;34.83;25.13;;;;;;;;;;5032603;28;20052;-68
2021/10/13 02:06:00;;;;;;;35.45;27.20;;;;;;;;;;5031399;28;20076;-68
2021/10/13 02:08:27;;;;;;;36.30;25.27;;;;;;;;;;5031496;28;20083;-68
2021/10/13 02:10:54;;;;;;;33.38;26.40;;;;;;;;;;5032141;28;20037;-68
2021/10/13 02:13:21;;;;;;;34.35;24.85;;;;;;;;;;5033989;28;20048;-68
2021/10/13 02:15:48;;;;;;;37.97;25.83;;;;;;;;;;5032563;28;20048;-68
2021/10/13 02:18:17;;;;;;;34.38;26.55;;;;;;;;;;5032750;28;20037;-68
2021/10/13 02:20:43;;;;;;;37.38;25.27;;;;;;;;;;5030626;28;20570;-68
2021/10/13 02:23:09;;;;;;;38.03;26.77;;;;;;;;;;5033399;28;20033;-68
2021/10/13 02:25:36;;;;;;;33.70;24.70;;;;;;;;;;5032225;28;20041;-68
2021/10/13 02:28:32;;;;;;;34.80;24.40;;;;;;;;;;5032644;28;20053;-68
2021/10/13 02:31:04;;;;;;;32.05;24.67;;;;;;;;;;5011134;28;20403;-68
2021/10/13 02:33:30;;;;;;;33.85;25.98;;;;;;;;;;5023836;28;20443;-68
2021/10/13 02:35:56;;;;;;;38.20;26.77;;;;;;;;;;5031372;28;20033;-68
2021/10/13 02:38:22;;;;;;;38.00;27.48;;;;;;;;;;5032290;28;20068;-68
2021/10/13 02:40:48;;;;;;;32.42;24.40;;;;;;;;;;5031656;28;20053;-68
2021/10/13 02:43:14;;;;;;;34.33;26.10;;;;;;;;;;5032549;28;20037;-68
2021/10/13 02:45:43;;;;;;;35.83;25.65;;;;;;;;;;5030808;28;20111;-68
2021/10/13 02:48:12;;;;;;;33.55;25.20;;;;;;;;;;5032315;28;20060;-68
2021/10/13 02:50:41;;;;;;;34.42;25.55;;;;;;;;;;5031295;28;20032;-68
2021/10/13 02:53:16;;;;;;;34.30;26.15;;;;;;;;;;5031741;28;20506;-68
2021/10/13 02:55:45;;;;;;;36.03;26.25;;;;;;;;;;5032264;28;20068;-68
2021/10/13 02:58:23;;;;;;;34.33;24.95;;;;;;;;;;5032604;28;20395;-68
2021/10/13 03:00:50;;;;;;;34.60;25.60;;;;;;;;;;5014353;28;20111;-68
2021/10/13 03:03:20;;;;;;;36.08;25.00;;;;;;;;;;5032559;28;20654;-68
2021/10/13 03:05:49;;;;;;;35.38;24.17;;;;;;;;;;5031857;28;20124;-68
2021/10/13 03:08:16;;;;;;;33.00;25.35;;;;;;;;;;5024003;28;20376;-68
2021/10/13 03:10:43;;;;;;;33.85;25.75;;;;;;;;;;5030500;28;20084;-68
2021/10/13 03:13:12;;;;;;;35.78;24.95;;;;;;;;;;5031594;28;20041;-68
2021/10/13 03:15:38;;;;;;;33.05;23.63;;;;;;;;;;5030868;28;20052;-68
2021/10/13 03:18:04;;;;;;;34.80;25.08;;;;;;;;;;5011284;28;20037;-68
2021/10/13 03:20:30;;;;;;;32.13;25.23;;;;;;;;;;5033836;28;20068;-68
2021/10/13 03:23:00;;;;;;;31.67;23.90;;;13.20;87.60;;;;;;5034229;28;20069;-68
2021/10/13 03:25:31;;;;;;;31.08;24.20;;;12.90;54.00;;;;;;5035181;28;20091;-68
2021/10/13 03:28:01;;;;;;;32.72;24.17;;;13.00;54.30;;;;;;5034800;28;20033;-68
2021/10/13 03:30:28;;;;;;;32.95;24.35;;;13.00;54.50;;;;;;5035911;28;20390;-68
2021/10/13 03:32:54;;;;;;;33.85;24.73;;;13.10;53.80;;;;;;5035695;28;20049;-68
2021/10/13 03:35:31;;;;;;;32.35;23.40;;;13.10;53.70;;;;;;5036186;28;20034;-68
2021/10/13 03:38:02;;;;;;;30.77;23.67;;;13.10;53.50;;;;;;5032935;28;20037;-68
2021/10/13 03:40:29;;;;;;;36.63;24.92;;;13.00;53.60;;;;;;5034090;28;20033;-68
2021/10/13 03:42:55;;;;;;;32.20;24.05;;;13.00;53.50;;;;;;5036177;28;20041;-68
2021/10/13 03:45:22;;;;;;;34.00;24.85;;;13.00;53.70;;;;;;5014183;28;20051;-68
2021/10/13 03:47:49;;;;;;;32.92;25.05;;;13.10;53.50;;;;;;5034781;28;20056;-68
2021/10/13 03:50:17;;;;;;;29.42;22.92;;;13.00;53.70;;;;;;5034864;28;20040;-68
2021/10/13 03:52:43;;;;;;;33.88;25.98;;;13.10;53.70;;;;;;5033946;28;20053;-68
2021/10/13 03:55:12;;;;;;;32.03;23.95;;;13.10;53.50;;;;;;5035245;28;20129;-68
2021/10/13 03:57:38;;;;;;;31.42;23.90;;;13.00;53.70;;;;;;5034768;28;20029;-68
2021/10/13 04:00:06;;;;;;;36.10;25.02;;;13.10;53.60;;;;;;5032619;28;20045;-68
2021/10/13 04:02:31;;;;;;;36.92;26.60;;;13.10;53.60;;;;;;5033995;28;20048;-68
2021/10/13 04:04:57;;;;;;;38.00;25.63;;;13.10;53.40;;;;;;5016954;28;20026;-68
2021/10/13 04:07:23;;;;;;;36.33;25.92;;;13.00;53.50;;;;;;5034278;28;20041;-68
2021/10/13 04:09:48;;;;;;;31.83;26.30;;;13.00;53.30;;;;;;5034998;28;20059;-68
2021/10/13 04:12:14;;;;;;;35.22;25.17;;;13.00;53.50;;;;;;5034451;28;20073;-68
2021/10/13 04:14:40;;;;;;;32.03;24.13;;;13.00;53.50;;;;;;5036124;28;20059;-68
2021/10/13 04:17:05;;;;;;;31.98;23.90;;;13.00;53.70;;;;;;5032755;28;20510;-68
2021/10/13 04:19:31;;;;;;;34.30;26.02;;;13.00;53.60;;;;;;5032869;28;20099;-68
2021/10/13 04:21:57;;;;;;;35.08;25.63;;;13.00;53.30;;;;;;5034010;28;20040;-68
2021/10/13 04:24:22;;;;;;;38.80;26.10;;;12.90;53.70;;;;;;5034388;28;20037;-68
2021/10/13 04:26:48;;;;;;;36.15;25.42;;;12.90;53.80;;;;;;5034870;28;20046;-68
2021/10/13 04:29:14;;;;;;;40.35;26.10;;;12.90;54.10;;;;;;5034670;28;20438;-68
2021/10/13 04:31:40;;;;;;;33.50;25.48;;;12.90;53.90;;;;;;5033458;28;20479;-68
2021/10/13 04:34:06;;;;;;;37.15;25.33;;;12.90;54.00;;;;;;5034966;28;20116;-68
2021/10/13 04:36:31;;;;;;;40.40;27.00;;;12.90;54.10;;;;;;5033934;28;20083;-68
2021/10/13 04:38:57;;;;;;;31.58;24.80;;;12.90;54.10;;;;;;5034249;28;20033;-68
2021/10/13 04:41:22;;;;;;;35.03;24.70;;;13.00;54.10;;;;;;5033474;28;20056;-68
2021/10/13 04:43:48;;;;;;;38.08;26.52;;;12.90;54.00;;;;;;5034219;28;20087;-68
2021/10/13 04:46:14;;;;;;;39.53;27.80;;;12.90;54.00;;;;;;5033590;28;20120;-68
2021/10/13 04:48:39;;;;;;;39.22;26.60;;;12.90;53.90;;;;;;5030560;28;20125;-68
2021/10/13 04:51:05;;;;;;;37.75;25.67;;;12.90;54.20;;;;;;5022674;28;20515;-68
2021/10/13 04:53:30;;;;;;;35.83;26.17;;;12.90;54.30;;;;;;5034419;28;20136;-67
2021/10/13 04:55:56;;;;;;;41.72;28.13;;;12.90;54.40;;;;;;5032212;28;20041;-67
2021/10/13 04:58:21;;;;;;;34.78;24.15;;;12.80;54.30;;;;;;5027409;28;20034;-68
2021/10/13 05:00:47;;;;;;;39.20;27.35;;;12.80;54.40;;;;;;5025554;28;20037;-68
2021/10/13 05:03:13;;;;;;;39.10;27.25;;;12.80;54.30;;;;;;5033149;28;20486;-67
2021/10/13 05:05:38;;;;;;;38.72;26.30;;;12.90;54.30;;;;;;5028942;28;20041;-68
2021/10/13 05:08:05;;;;;;;39.97;27.27;;;12.80;54.30;;;;;;5027498;28;20042;-68
2021/10/13 05:10:30;;;;;;;38.65;27.27;;;12.80;54.30;;;;;;5032960;28;20046;-68
2021/10/13 05:12:56;;;;;;;36.22;27.60;;;12.80;54.20;;;;;;5034280;28;20564;-67
2021/10/13 05:15:22;;;;;;;40.50;27.25;;;12.70;54.30;;;;;;5030685;28;20054;-68
2021/10/13 05:17:47;;;;;;;38.17;26.30;;;12.50;55.10;;;;;;5033782;28;20033;-67
2021/10/13 05:20:13;;;;;;;39.28;27.63;;;12.60;55.00;;;;;;5033739;28;20200;-67
2021/10/13 05:22:39;;;;;;;37.30;27.77;;;12.60;55.00;;;;;;5024016;28;20030;-68
2021/10/13 05:25:05;;;;;;;37.22;25.63;;;12.50;54.80;;;;;;5031234;28;20113;-67
2021/10/13 05:27:31;;;;;;;36.70;26.65;;;12.50;54.60;;;;;;5030611;28;20038;-68
2021/10/13 05:29:57;;;;;;;37.33;26.52;;;12.60;55.00;;;;;;5016124;28;20045;-67
2021/10/13 05:32:22;;;;;;;39.45;28.58;;;12.60;54.70;;;;;;5033175;28;20466;-67
2021/10/13 05:34:48;;;;;;;41.90;28.52;;;12.50;54.90;;;;;;5033333;28;20033;-67
2021/10/13 05:37:13;;;;;;;40.83;28.05;;;12.60;54.60;;;;;;5013808;28;20128;-67
2021/10/13 05:39:39;;;;;;;40.78;28.58;;;12.60;54.50;;;;;;5033661;28;20041;-67
2021/10/13 05:42:04;;;;;;;38.90;27.85;;;12.60;54.20;;;;;;5031954;28;20080;-67
2021/10/13 05:44:30;;;;;;;38.03;27.95;;;12.50;54.30;;;;;;5014352;28;20037;-67
2021/10/13 05:46:56;;;;;;;38.88;27.83;;;12.50;54.60;;;;;;5031793;28;20053;-68
2021/10/13 05:49:21;;;;;;;38.92;27.02;;;12.60;54.70;;;;;;5032005;28;20479;-67
2021/10/13 05:51:47;;;;;;;40.97;27.80;;;12.60;54.30;;;;;;5032356;28;20407;-67
2021/10/13 05:54:13;;;;;;;40.28;27.77;;;12.70;54.20;;;;;;5015379;28;20033;-67
2021/10/13 05:56:38;;;;;;;39.53;26.85;;;12.70;54.10;;;;;;5014061;28;20048;-67
2021/10/13 05:59:04;;;;;;;36.65;27.08;;;12.60;54.10;;;;;;5033795;28;20034;-67
2021/10/13 06:01:30;;;;;;;38.78;28.73;;;12.60;54.30;;;;;;5031169;28;20057;-67
2021/10/13 06:03:55;;;;;;;38.88;26.05;;;12.70;54.50;;;;;;5017022;28;20124;-68
2021/10/13 06:06:21;;;;;;;38.08;28.55;;;12.70;54.20;;;;;;5030684;28;20088;-68
2021/10/13 06:08:47;;;;;;;41.10;27.33;;;12.70;54.50;;;;;;5032672;28;20073;-67
2021/10/13 06:11:13;;;;;;;36.03;25.05;;;12.70;54.20;;;;;;5032562;28;20049;-67
2021/10/13 06:13:40;;;;;;;36.00;25.23;;;12.60;54.20;;;;;;5033059;28;20041;-68
2021/10/13 06:16:13;;;;;;;37.47;26.60;;;12.70;54.30;;;;;;5013613;28;20041;-67
2021/10/13 06:18:40;;;;;;;39.08;26.40;;;12.70;54.30;;;;;;5029660;28;20041;-68
2021/10/13 06:21:06;;;;;;;38.92;28.02;;;12.70;54.40;;;;;;5032450;28;20036;-68
2021/10/13 06:23:31;;;;;;;38.05;26.52;;;12.80;54.50;;;;;;5024162;28;20387;-67
2021/10/13 06:25:57;;;;;;;38.40;26.67;;;12.80;54.60;;;;;;5031775;28;20041;-68
2021/10/13 06:28:23;;;;;;;40.67;26.83;;;12.80;54.70;;;;;;5032716;28;20048;-68
2021/10/13 06:30:48;;;;;;;43.42;28.25;;;12.90;54.60;;;;;;5032179;28;20060;-68
2021/10/13 06:33:14;;;;;;;41.67;27.45;;;12.80;54.40;;;;;;5032450;28;20056;-68
2021/10/13 06:35:40;;;;;;;39.95;27.88;;;12.80;54.60;;;;;;5013069;28;20045;-68
2021/10/13 06:38:06;;;;;;;38.53;26.30;;;12.90;54.50;;;;;;5032078;28;20033;-69
2021/10/13 06:40:31;;;;;;;41.50;28.00;;;13.00;54.50;;;;;;5031330;28;20052;-68
2021/10/13 06:43:00;;;;;;;42.95;27.42;;;12.90;54.70;;;;;;5030981;28;20041;-68
2021/10/13 06:45:26;;;;;;;40.97;26.60;;;12.80;55.10;;;;;;5030399;28;20032;-68
2021/10/13 06:47:52;;;;;;;43.65;27.45;;;12.80;55.30;;;;;;5023285;28;20038;-68
2021/10/13 06:50:17;;;;;;;40.60;27.52;;;12.80;55.60;;;;;;5030528;28;20037;-70
2021/10/13 06:52:43;;;;;;;43.85;29.58;;;12.80;55.50;;;;;;5030149;28;20480;-68
2021/10/13 06:55:09;;;;;;;47.17;30.05;;;12.90;55.40;;;;;;5030695;28;20042;-68
2021/10/13 06:57:35;;;;;;;47.28;29.65;;;12.80;55.60;;;;;;5031163;28;20040;-68
2021/10/13 07:00:03;;;;;;;43.63;29.30;;;12.80;55.60;;;;;;5031996;28;20116;-68
2021/10/13 07:02:28;;;;;;;38.17;27.98;;;12.70;55.60;;;;;;5030955;28;20490;-68
2021/10/13 07:04:54;;;;;;;39.25;26.48;;;12.50;56.10;;;;;;5031814;28;20044;-68
2021/10/13 07:07:19;;;;;;;34.70;26.98;;;12.50;56.20;;;;;;5029701;28;20036;-68
2021/10/13 07:09:45;;;;;;;36.30;25.67;;;12.30;56.70;;;;;;5030698;28;20375;-68
2021/10/13 07:12:11;;;;;;;41.97;26.02;;;12.30;56.60;;;;;;5031759;28;20052;-68
2021/10/13 07:14:36;;;;;;;39.28;26.23;;;12.20;56.50;;;;;;5032747;28;20029;-68
2021/10/13 07:17:02;;;;;;;35.47;26.23;;;12.20;56.60;;;;;;5028740;28;20494;-68
2021/10/13 07:19:27;;;;;;;47.10;28.27;;;12.10;56.80;;;;;;5014885;28;20033;-68
2021/10/13 07:21:53;;;;;;;37.13;27.77;;;12.10;57.20;;;;;;5030942;28;20034;-68
2021/10/13 07:24:18;;;;;;;42.42;30.00;;;12.00;56.90;;;;;;5031033;28;20124;-68
2021/10/13 07:26:45;;;;;;;44.22;28.20;;;12.00;57.50;;;;;;5029658;28;20041;-67
2021/10/13 07:29:12;;;;;;;45.03;29.88;;;12.10;78.50;;;;;;5029417;28;20036;-67
2021/10/13 07:31:38;;;;;;;39.83;29.40;;;12.10;60.70;;;;;;5031102;28;20525;-67
2021/10/13 07:34:03;;;;;;;43.83;31.33;;;12.20;61.10;;;;;;5030379;28;20033;-68
2021/10/13 07:36:30;;;;;;;46.53;30.90;;;12.30;61.00;;;;;;5030533;28;20517;-67
2021/10/13 07:38:56;;;;;;;42.80;31.08;;;12.30;61.20;;;;;;5031158;28;20037;-68
2021/10/13 07:41:23;;;;;;;45.25;30.33;;;12.30;60.80;;;;;;5030309;28;20033;-67
2021/10/13 07:43:48;;;;;;;48.00;31.67;;;12.40;60.70;;;;;;5030387;28;20076;-67
2021/10/13 07:46:14;;;;;;;49.72;32.67;;;12.40;60.40;;;;;;5025080;28;20068;-67
2021/10/13 07:48:40;;;;;;;41.28;30.85;;;12.50;60.00;;;;;;5031875;28;20049;-67
2021/10/13 07:51:06;;;;;;;45.30;31.58;;;12.60;60.20;;;;;;5031354;28;20483;-67
2021/10/13 07:53:31;;;;;;;46.50;31.70;;;12.60;60.30;;;;;;5031564;28;20072;-67
2021/10/13 07:55:57;;;;;;;46.75;32.72;;;12.50;60.20;;;;;;5030446;28;20034;-67
2021/10/13 07:58:22;;;;;;;50.13;31.70;;;12.70;60.20;;;;;;5031439;28;20065;-68
2021/10/13 08:00:48;;;;;;;42.80;32.90;;;12.70;60.20;;;;;;5031798;28;20033;-68
2021/10/13 08:03:14;;;;;;;42.63;32.00;;;12.80;60.40;;;;;;5030968;28;20041;-68
2021/10/13 08:05:40;;;;;;;48.42;31.65;;;12.70;60.20;;;;;;5030780;28;20087;-68
2021/10/13 08:08:06;;;;;;;44.95;32.63;;;12.80;60.20;;;;;;5033747;28;20049;-68
2021/10/13 08:10:32;;;;;;;49.95;33.70;;;12.70;60.50;;;;;;5035673;28;20045;-68
2021/10/13 08:12:59;;;;;;;52.17;33.97;;;12.90;60.40;;;;;;5034951;28;20052;-68
2021/10/13 08:15:25;;;;;;;46.30;32.65;;;12.80;60.20;;;;;;5034387;28;20109;-67
2021/10/13 08:17:51;;;;;;;47.70;33.60;;;12.80;59.90;;;;;;5034267;28;20049;-67
2021/10/13 08:20:17;;;;;;;45.65;32.35;;;13.00;59.80;;;;;;5035640;28;20064;-67
2021/10/13 08:22:43;;;;;;;49.65;33.85;;;13.10;59.80;;;;;;5034289;28;20372;-68
2021/10/13 08:25:09;;;;;;;43.55;31.13;;;12.90;60.20;;;;;;5034494;28;20112;-68
2021/10/13 08:27:35;;;;;;;51.13;31.98;;;13.00;60.00;;;;;;5038102;28;20037;-67
2021/10/13 08:30:01;;;;;;;47.90;32.38;;;13.10;59.80;;;;;;5033556;28;20040;-68
2021/10/13 08:32:27;;;;;;;46.15;31.58;;;13.30;59.40;;;;;;5027004;28;20049;-67
2021/10/13 08:34:53;;;;;;;41.67;30.88;;;13.40;58.70;;;;;;5033662;28;20144;-67
2021/10/13 08:37:18;;;;;;;41.67;28.30;;;13.30;57.60;;;;;;5014699;28;20041;-68
2021/10/13 08:39:44;;;;;;;45.53;30.35;;;13.30;56.70;;;;;;5034037;28;20117;-68
2021/10/13 08:42:10;;;;;;;41.58;29.98;;;13.30;57.40;;;;;;5032877;28;20120;-68
2021/10/13 08:44:40;;;;;;;40.65;30.20;;;13.40;57.70;;;;;;5033281;28;20036;-68
2021/10/13 08:47:10;;;;;;;44.88;30.75;;;13.50;57.70;;;;;;5024895;28;20044;-68
2021/10/13 08:49:36;;;;;;;41.90;30.20;;;13.50;57.60;;;;;;5033779;28;20462;-68
2021/10/13 08:52:08;;;;;;;39.58;30.13;;;13.50;57.30;;;;;;5033598;28;20132;-68
2021/10/13 08:54:33;;;;;;;44.75;30.80;;;13.60;57.50;;;;;;5033948;28;20390;-68
2021/10/13 08:56:59;;;;;;;37.90;28.52;;;13.70;57.40;;;;;;5032019;28;20045;-68
2021/10/13 08:59:46;;;;;;;41.25;29.67;;;13.70;56.30;;;;;;5033352;28;20037;-68
2021/10/13 09:02:12;;;;;;;39.28;28.02;;;13.80;55.40;;;;;;5025708;28;20091;-67
2021/10/13 09:04:38;;;;;;;38.03;28.55;;;13.80;55.00;;;;;;5030126;28;20033;-67
2021/10/13 09:07:04;;;;;;;38.13;28.48;;;13.90;55.70;;;;;;5013793;28;20422;-67
2021/10/13 09:09:31;;;;;;;44.92;29.63;;;13.90;55.40;;;;;;5032972;28;20051;-68
2021/10/13 09:11:57;;;;;;;41.78;30.38;;;13.90;54.20;;;;;;5031411;28;20406;-68
2021/10/13 09:14:31;;;;;;;40.63;28.73;;;14.00;55.10;;;;;;5032955;28;20038;-67
2021/10/13 09:17:08;;;;;;;38.92;28.52;;;14.10;54.20;;;;;;5019904;28;20044;-68
2021/10/13 09:19:33;;;;;;;38.13;28.85;;;14.10;54.20;;;;;;5034591;28;20076;-67
2021/10/13 09:22:08;;;;;;;40.45;28.42;;;14.20;53.70;;;;;;5033536;28;20454;-68
2021/10/13 09:24:44;;;;;;;37.28;28.42;;;14.10;53.70;;;;;;5034170;28;20048;-68
2021/10/13 09:27:31;;;;;;;40.15;28.17;;;14.30;52.70;;;;;;5033763;28;20041;-68
2021/10/13 09:30:02;;;;;;;37.72;27.98;;;14.30;52.10;;;;;;5034353;28;20061;-68
2021/10/13 09:32:28;;;;;;;35.42;27.15;;;14.30;53.20;;;;;;5032630;28;20084;-68
2021/10/13 09:34:55;;;;;;;40.88;28.52;;;14.30;53.60;;;;;;5034452;28;20021;-68
2021/10/13 09:37:22;;;;;;;43.05;30.30;;;14.40;52.90;;;;;;5033293;28;20056;-68
2021/10/13 09:40:00;;;;;;;38.85;27.85;;;14.50;52.40;;;;;;5034135;28;20069;-68
2021/10/13 09:42:26;;;;;;;43.05;28.77;;;14.50;51.90;;;;;;5022501;28;20125;-67
2021/10/13 09:44:57;;;;;;;41.78;29.38;;;14.70;52.00;;;;;;5030123;28;20061;-68
2021/10/13 09:47:34;;;;;;;38.95;29.52;;;14.70;52.10;;;;;;5023812;28;20037;-68
2021/10/13 09:50:01;;;;;;;38.97;29.65;;;14.70;51.70;;;;;;5033022;28;20113;-68
2021/10/13 09:52:29;;;;;;;43.33;30.30;;;14.80;52.10;;;;;;5028458;28;20132;-67
2021/10/13 09:55:02;;;;;;;38.65;29.73;;;14.80;51.80;;;;;;5033703;28;20056;-68
2021/10/13 09:57:33;;;;;;;40.78;28.25;;;14.90;51.60;;;;;;5032900;28;20042;-67
2021/10/13 10:00:07;;;;;;;43.05;30.15;;;14.90;52.40;;;;;;5034014;28;20048;-69
2021/10/13 10:02:45;;;;;;;40.42;28.50;;;15.00;52.40;;;;;;5023240;28;20045;-68
2021/10/13 10:05:18;;;;;;;42.15;30.10;;;15.00;52.80;;;;;;5031079;28;20040;-67
2021/10/13 10:08:03;;;;;;;40.58;28.77;;;15.10;52.60;;;;;;5015293;28;20392;-67
2021/10/13 10:10:29;;;;;;;;;;;15.20;52.40;;;;;;5032055;28;20065;-68
2021/10/13 10:13:05;;;;;;;40.67;28.55;;;15.20;51.70;;;;;;5012152;28;19936;-67
2021/10/13 10:15:45;;;;;;;37.85;26.65;;;15.20;51.50;;;;;;5021965;28;20042;-66
2021/10/13 10:18:32;;;;;;;34.35;26.95;;;15.30;52.60;;;;;;5015637;28;20467;-59
2021/10/13 10:21:27;;;;;;;36.63;27.25;;;15.20;55.10;;;;;;5033620;28;20033;-59
2021/10/13 10:24:14;;;;;;;38.00;27.40;;;15.20;66.60;;;;;;5013098;28;20045;-60
2021/10/13 10:26:40;;;;;;;37.92;26.98;;;15.30;66.00;;;;;;5021545;28;20048;-60
2021/10/13 10:29:16;;;;;;;40.92;26.98;;;15.40;66.30;;;;;;5033050;28;20100;-73
2021/10/13 10:31:57;;;;;;;35.13;25.42;;;15.30;65.60;;;;;;5031812;28;20498;-71
2021/10/13 10:34:25;;;;;;;37.20;26.23;;;15.50;64.70;;;;;;5033261;28;20065;-72
2021/10/13 10:37:08;;;;;;;30.45;23.23;;;15.60;65.10;;;;;;5031084;28;20459;-60
2021/10/13 10:39:54;;;;;;;36.63;25.40;;;15.50;69.10;;;;;;5033278;28;20037;-62
2021/10/13 10:42:52;;;;;;;38.05;27.15;;;15.70;62.20;;;;;;5018921;28;20077;-62
2021/10/13 10:45:25;;;;;;;42.28;25.40;;;15.60;61.60;;;;;;5033399;28;20041;-62
2021/10/13 10:47:52;;;;;;;45.00;27.02;;;15.80;61.70;;;;;;5030238;28;20067;-62
2021/10/13 10:50:47;;;;;;;33.33;24.70;;;15.80;61.70;;;;;;5032641;28;20034;-63
2021/10/13 10:53:31;;;;;;;32.88;23.50;;;15.90;61.60;;;;;;5032075;28;20108;-62
2021/10/13 10:56:16;;;;;;;25.63;19.70;;;16.00;60.30;;;;;;5033254;28;20100;-61
2021/10/13 10:59:04;;;;;;;38.33;28.50;;;16.00;58.80;;;;;;5029174;28;20033;-70
2021/10/13 11:01:31;;;;;;;33.03;22.92;;;16.10;58.70;;;;;;5031768;28;20102;-66
2021/10/13 11:03:56;;;;;;;30.25;21.98;;;16.20;60.90;;;;;;5031419;28;20412;-67
2021/10/13 11:06:27;;;;;;;28.70;21.92;;;16.30;62.10;;;;;;5033112;28;20127;-67
2021/10/13 11:08:53;;;;;;;31.73;23.17;;;16.40;43.50;;;;;;5017735;28;20165;-67
2021/10/13 11:11:19;;;;;;;30.88;23.42;;;16.50;44.40;;;;;;5023672;28;20120;-67
2021/10/13 11:13:59;;;;;;;31.38;24.33;;;16.50;44.70;;;;;;5031279;28;20044;-67
2021/10/13 11:16:26;;;;;;;31.55;22.75;;;16.60;44.90;;;;;;5029415;28;20077;-67
2021/10/13 11:18:51;;;;;;;30.55;21.52;;;16.70;44.40;;;;;;5031408;28;20166;-67
2021/10/13 11:21:17;;;;;;;27.33;20.13;;;16.70;43.50;;;;;;5032713;28;20609;-67
2021/10/13 11:23:43;;;;;;;28.10;21.00;;;16.80;42.00;;;;;;5031844;28;20048;-67
2021/10/13 11:26:08;;;;;;;30.75;22.23;;;16.80;40.40;;;;;;5032636;28;20042;-67
2021/10/13 11:28:36;;;;;;;31.67;24.33;;;16.80;41.30;;;;;;5031804;28;20099;-66
2021/10/13 11:31:08;;;;;;;35.80;26.63;;;16.80;42.10;;;;;;5032386;28;20037;-67
2021/10/13 11:33:34;;;;;;;39.67;26.92;;;16.80;42.90;;;;;;5031142;28;20045;-66
2021/10/13 11:36:06;;;;;;;33.00;23.90;;;17.00;42.10;;;;;;5014659;28;20112;-67
2021/10/13 11:38:35;;;;;;;34.05;25.95;;;17.10;41.40;;;;;;5031486;28;20494;-66
2021/10/13 11:41:10;;;;;;;35.45;26.27;;;17.10;41.80;;;;;;5033474;28;20495;-67
2021/10/13 11:43:37;;;;;;;39.05;27.20;;;17.10;41.80;;;;;;5028863;28;20037;-67
2021/10/13 11:46:03;;;;;;;38.25;29.20;;;17.20;42.30;;;;;;5035824;28;20036;-66
2021/10/13 11:48:32;;;;;;;38.92;27.90;;;17.20;43.00;;;;;;5035125;28;20120;-66
2021/10/13 11:51:00;;;;;;;38.92;26.63;;;17.30;42.90;;;;;;5036280;28;20026;-66
2021/10/13 11:53:27;;;;;;;33.55;26.38;;;17.50;43.20;;;;;;5034933;28;20081;-66
2021/10/13 11:55:53;;;;;;;35.47;26.50;;;17.50;48.70;;;;;;5019140;28;20068;-66
2021/10/13 11:58:30;;;;;;;37.72;28.35;;;17.60;49.00;;;;;;5035385;28;20125;-66
2021/10/13 12:00:57;;;;;;;33.10;24.75;;;17.70;47.00;;;;;;5035919;28;20403;-66
2021/10/13 12:03:36;;;;;;;35.35;25.83;;;17.80;50.40;;;;;;5035373;28;20038;-66
2021/10/13 12:06:03;;;;;;;33.50;25.63;;;17.90;44.40;;;;;;5035856;28;20505;-66
2021/10/13 12:08:40;;;;;;;32.38;24.63;;;17.90;37.60;;;;;;5033699;28;20036;-67
2021/10/13 12:11:14;;;;;;;32.95;25.00;;;17.90;36.60;;;;;;5035397;28;20466;-66
2021/10/13 12:13:44;;;;;;;36.83;27.70;;;18.00;37.20;;;;;;5034510;28;20041;-67
2021/10/13 12:16:11;;;;;;;39.53;29.08;;;18.20;37.70;;;;;;5034300;28;20049;-67
2021/10/13 12:18:45;;;;;;;36.72;29.02;;;18.20;37.90;;;;;;5028687;28;20041;-67
2021/10/13 12:21:14;;;;;;;35.53;28.05;;;18.50;38.90;;;;;;5016294;28;20030;-66
2021/10/13 12:23:50;;;;;;;39.58;28.60;;;18.40;52.20;;;;;;5032852;28;20120;-66
2021/10/13 12:26:20;;;;;;;36.08;27.00;;;18.60;50.60;;;;;;5032735;28;20040;-66
2021/10/13 12:28:48;;;;;;;33.00;23.27;;;18.80;53.20;;;;;;5027569;28;20038;-66
2021/10/13 12:31:20;;;;;;;32.15;22.20;;;19.10;52.10;;;;;;5034161;28;20040;-66
2021/10/13 12:33:53;;;;;;;33.83;25.73;;;18.90;46.80;;;;;;5034667;28;20069;-66
2021/10/13 12:36:24;;;;;;;34.33;26.63;;;19.00;45.90;;;;;;5035803;28;20044;-66
2021/10/13 12:38:55;;;;;;;35.22;26.80;;;18.90;42.70;;;;;;5034339;28;20161;-65
2021/10/13 12:41:28;;;;;;;31.45;25.88;;;19.10;42.50;;;;;;5035346;28;20065;-66
2021/10/13 12:43:53;;;;;;;30.42;24.42;;;19.20;42.40;;;;;;5033911;28;20043;-66
2021/10/13 12:46:21;;;;;;;37.38;28.00;;;19.10;44.10;;;;;;5028215;28;20026;-66
2021/10/13 12:48:46;;;;;;;32.15;26.40;;;19.20;46.90;;;;;;5030026;28;20471;-66
2021/10/13 12:51:13;;;;;;;31.30;24.85;;;19.60;53.60;;;;;;5026352;28;20067;-66
2021/10/13 12:53:39;;;;;;;33.85;26.05;;;19.30;48.00;;;;;;5033661;28;20033;-66
2021/10/13 12:56:06;;;;;;;30.70;24.80;;;19.30;48.40;;;;;;5034912;28;20116;-66
2021/10/13 12:58:33;;;;;;;31.85;22.85;;;19.40;46.30;;;;;;5033797;28;20045;-66
2021/10/13 13:00:58;;;;;;;31.65;22.40;;;19.40;46.40;;;;;;5034735;28;20029;-66